Time;durP1;ratioP1;P1;durP2;ratioP2;P2;SDS_P1;SDS_P2;PMS_P1;PMS_P2;Temp;Humidity;BMP_temperature;BMP_pressure;BME280_temperature;BME280_humidity;BME280_pressure;Samples;Min_cycle;Max_cycle;Signal;HPM_P1;HPM_P2
2022/07/28 00:01:23;;;;;;;9.63;6.72;;;;;;;28.00;55.22;100830.22;5007263;28;20081;-79
2022/07/28 00:03:49;;;;;;;7.35;6.30;;;;;;;27.82;55.34;100818.44;5007398;28;20492;-77
2022/07/28 00:06:16;;;;;;;13.82;7.38;;;;;;;27.88;55.28;100811.19;5007233;28;20100;-79
2022/07/28 00:08:43;;;;;;;8.00;6.35;;;;;;;27.94;55.71;100833.91;5007690;28;20064;-79
2022/07/28 00:11:09;;;;;;;8.65;6.93;;;;;;;27.96;55.88;100834.50;5007353;28;20100;-76
2022/07/28 00:13:36;;;;;;;11.93;6.32;;;;;;;27.87;55.95;100815.81;5008577;28;20100;-78
2022/07/28 00:16:03;;;;;;;11.38;6.63;;;;;;;27.80;56.00;100812.38;5007814;28;20549;-78
2022/07/28 00:18:30;;;;;;;9.48;6.65;;;;;;;27.80;55.84;100804.19;5007582;28;20053;-80
2022/07/28 00:20:56;;;;;;;13.55;6.72;;;;;;;27.98;55.78;100826.91;5008520;28;20500;-79
2022/07/28 00:23:24;;;;;;;13.70;6.18;;;;;;;28.02;55.43;100836.25;5007799;28;20480;-78
2022/07/28 00:26:05;;;;;;;7.45;5.70;;;;;;;27.94;55.46;100818.38;5011017;28;20057;-78
2022/07/28 00:28:32;;;;;;;8.50;5.97;;;;;;;27.86;54.81;100796.94;5011900;28;20443;-78
2022/07/28 00:30:59;;;;;;;9.50;5.70;;;;;;;27.85;54.62;100812.50;4991124;28;20488;-79
2022/07/28 00:33:35;;;;;;;8.30;6.85;;;;;;;27.84;54.77;100810.84;4989354;28;20054;-79
2022/07/28 00:36:02;;;;;;;9.20;6.22;;;;;;;28.04;54.56;100836.84;4988813;28;20050;-78
2022/07/28 00:38:29;;;;;;;7.97;5.72;;;;;;;28.12;54.04;100852.78;4988579;28;20451;-78
2022/07/28 00:41:10;;;;;;;12.23;6.50;;;;;;;28.18;53.83;100853.69;4988980;28;20144;-79
2022/07/28 00:43:44;;;;;;;7.20;6.05;;;;;;;28.18;53.73;100849.09;4988072;28;20046;-78
2022/07/28 00:46:12;;;;;;;8.00;6.75;;;;;;;28.05;54.04;100836.56;4988607;28;20050;-78
2022/07/28 00:48:39;;;;;;;7.80;5.60;;;;;;;28.08;54.15;100851.63;4986931;28;20085;-78
2022/07/28 00:51:08;;;;;;;9.75;5.72;;;;;;;27.81;54.48;100827.66;4988507;28;20046;-79
2022/07/28 00:53:39;;;;;;;7.30;5.70;;;;;;;27.72;54.57;100818.25;4995993;28;20380;-78
2022/07/28 00:56:06;;;;;;;7.65;5.28;;;;;;;27.82;54.47;100840.28;5006457;28;20484;-79
2022/07/28 00:58:36;;;;;;;10.27;6.82;;;;;;;27.75;54.73;100825.94;5006068;28;20058;-78
2022/07/28 01:01:08;;;;;;;8.07;6.28;;;;;;;27.56;54.87;100808.13;5006939;28;20085;-78
2022/07/28 01:03:39;;;;;;;10.90;6.45;;;;;;;27.80;54.87;100842.38;5006191;28;20058;-78
2022/07/28 01:06:24;;;;;;;14.57;6.43;;;;;;;27.45;54.67;100794.31;5006291;28;20046;-79
2022/07/28 01:09:09;;;;;;;12.40;6.05;;;;;;;27.72;55.35;100845.53;4990222;28;20261;-79
2022/07/28 01:11:44;;;;;;;8.35;6.07;;;;;;;27.65;55.28;100833.94;5006464;28;20038;-78
2022/07/28 01:14:18;;;;;;;7.65;6.57;;;;;;;27.59;55.44;100829.44;5006062;28;20046;-79
2022/07/28 01:16:55;;;;;;;7.32;6.55;;;;;;;27.48;55.48;100828.44;5005838;28;20085;-78
2022/07/28 01:19:45;;;;;;;9.95;6.50;;;;;;;27.50;55.49;100826.25;5006365;28;20595;-78
2022/07/28 01:22:19;;;;;;;8.63;6.30;;;;;;;27.54;54.67;100837.53;5007196;28;20581;-78
2022/07/28 01:24:55;;;;;;;7.13;5.78;;;;;;;27.55;55.57;100820.94;5005978;28;20046;-79
2022/07/28 01:27:44;;;;;;;7.10;6.22;;;;;;;27.97;55.22;100825.25;5005976;28;20244;-79
2022/07/28 01:30:33;;;;;;;10.18;6.30;;;;;;;28.12;54.57;100850.88;4999762;28;20140;-78
2022/07/28 01:33:06;;;;;;;12.43;6.88;;;;;;;27.97;54.61;100830.72;5005736;28;20522;-78
2022/07/28 01:35:42;;;;;;;8.18;6.75;;;;;;;27.79;54.75;100827.06;5006116;28;20177;-78
2022/07/28 01:38:11;;;;;;;18.25;7.25;;;;;;;27.60;55.18;100834.66;5007113;28;20077;-78
2022/07/28 01:40:41;;;;;;;12.68;6.90;;;;;;;27.55;55.99;100839.16;5005828;28;20081;-78
2022/07/28 01:43:13;;;;;;;10.80;6.82;;;;;;;27.17;55.47;100778.72;5006158;28;20091;-78
2022/07/28 01:45:41;;;;;;;8.68;6.57;;;;;;;27.13;55.93;100771.28;5005864;28;20050;-78
2022/07/28 01:48:10;;;;;;;14.05;6.68;;;;;;;27.38;56.05;100839.97;5005555;28;20686;-79
2022/07/28 01:50:40;;;;;;;7.55;6.57;;;;;;;27.47;56.12;100843.94;5006196;28;20046;-79
2022/07/28 01:53:10;;;;;;;9.25;7.00;;;;;;;27.25;56.26;100818.41;5005615;28;20492;-78
2022/07/28 01:55:38;;;;;;;8.13;6.77;;;;;;;27.37;56.19;100854.66;5005511;28;20085;-78
2022/07/28 01:58:06;;;;;;;10.40;7.88;;;;;;;27.15;56.68;100834.53;5005659;28;20111;-78
2022/07/28 02:00:35;;;;;;;13.85;7.45;;;;;;;27.11;57.19;100844.25;5005422;28;20116;-78
2022/07/28 02:03:05;;;;;;;8.93;7.28;;;;;;;26.94;57.50;100839.53;5007012;28;20082;-78
2022/07/28 02:05:35;;;;;;;11.73;7.20;;;;;;;27.03;57.76;100859.91;5006485;28;20464;-78
2022/07/28 02:08:04;;;;;;;14.02;8.35;;;;;;;26.96;57.99;100847.47;5006899;28;20100;-79
2022/07/28 02:10:32;;;;;;;8.82;7.28;;;;;;;26.95;58.07;100846.66;5009677;28;20077;-78
2022/07/28 02:13:00;;;;;;;8.95;7.18;;;;;;;27.01;58.12;100845.69;5009331;28;20573;-79
2022/07/28 02:15:29;;;;;;;12.55;8.48;;;;;;;27.06;58.19;100854.00;5009156;28;20508;-78
2022/07/28 02:17:58;;;;;;;12.15;8.50;;;;;;;27.02;58.04;100852.81;5009164;28;20504;-77
2022/07/28 02:20:25;;;;;;;11.82;7.78;;;;;;;27.04;57.33;100858.84;5009619;28;20061;-78
2022/07/28 02:22:52;;;;;;;7.43;6.63;;;;;;;27.00;56.75;100857.66;5009272;28;20058;-77
2022/07/28 02:25:20;;;;;;;7.72;6.47;;;;;;;26.91;56.31;100856.38;5011319;28;20050;-78
2022/07/28 02:27:51;;;;;;;8.50;6.10;;;;;;;26.86;56.14;100846.19;5015011;28;20443;-78
2022/07/28 02:30:26;;;;;;;10.82;6.70;;;;;;;26.73;55.76;100832.00;5006010;28;20141;-79
2022/07/28 02:32:54;;;;;;;8.75;6.97;;;;;;;26.85;55.68;100857.34;5008863;28;20049;-78
2022/07/28 02:35:30;;;;;;;11.73;6.20;;;;;;;26.63;55.65;100817.09;5008985;28;20050;-78
2022/07/28 02:38:01;;;;;;;8.18;5.82;;;;;;;26.82;55.26;100838.72;5008956;28;20628;-78
2022/07/28 02:40:35;;;;;;;9.30;5.70;;;;;;;26.83;54.72;100848.56;5009303;28;20147;-77
2022/07/28 02:43:05;;;;;;;7.60;6.65;;;;;;;26.90;54.38;100854.72;5012470;28;20061;-78
2022/07/28 02:45:35;;;;;;;10.93;6.20;;;;;;;26.41;53.88;100789.63;5014560;28;20050;-79
2022/07/28 02:48:09;;;;;;;6.82;5.70;;;;;;;26.69;54.39;100852.59;5023232;28;20181;-80
2022/07/28 02:50:39;;;;;;;10.88;5.97;;;;;;;26.66;54.37;100845.75;5031760;28;20030;-80
2022/07/28 02:53:08;;;;;;;11.43;6.25;;;;;;;26.66;54.72;100858.53;5022625;28;20049;-78
2022/07/28 02:55:42;;;;;;;8.27;5.78;;;;;;;26.72;54.88;100850.22;5009176;28;20057;-78
2022/07/28 02:58:10;;;;;;;6.68;6.03;;;;;;;26.78;54.12;100843.84;5008906;28;20480;-80
2022/07/28 03:00:38;;;;;;;11.85;6.68;;;;;;;26.79;54.17;100853.66;5008599;28;20488;-80
2022/07/28 03:03:05;;;;;;;7.40;6.03;;;;;;;26.76;54.13;100845.16;5008575;28;20416;-80
2022/07/28 03:05:32;;;;;;;12.32;6.53;;;;;;;26.78;54.16;100856.63;5008673;28;20054;-78
2022/07/28 03:07:59;;;;;;;8.55;6.28;;;;;;;26.82;54.21;100864.09;5009846;28;20140;-78
2022/07/28 03:10:27;;;;;;;7.85;5.57;;;;;;;26.39;54.20;100818.13;5008220;28;20531;-78
2022/07/28 03:13:00;;;;;;;8.32;5.80;;;;;;;26.67;54.19;100865.63;5008427;28;20339;-78
2022/07/28 03:15:27;;;;;;;8.63;6.47;;;;;;;26.69;54.27;100858.06;5009442;28;20049;-78
2022/07/28 03:17:54;;;;;;;7.90;5.65;;;;;;;26.42;54.31;100821.19;5009289;28;20046;-78
2022/07/28 03:20:20;;;;;;;8.60;6.22;;;;;;;26.45;54.14;100830.78;5009050;28;20092;-79
2022/07/28 03:22:47;;;;;;;8.60;6.03;;;;;;;26.51;54.44;100854.34;5007266;28;20443;-77
2022/07/28 03:25:39;;;;;;;7.03;6.32;;;;;;;26.54;54.58;100851.19;5008340;28;20463;-79
2022/07/28 03:28:11;;;;;;;7.88;4.82;;;;;;;26.60;53.98;100863.00;5009156;28;20112;-78
2022/07/28 03:30:41;;;;;;;9.75;6.28;;;;;;;26.53;54.17;100871.31;4997867;28;20085;-79
2022/07/28 03:33:08;;;;;;;8.23;5.72;;;;;;;26.18;54.28;100804.03;5008261;28;20128;-78
2022/07/28 03:35:38;;;;;;;7.00;5.95;;;;;;;26.61;53.77;100872.84;5007874;28;20598;-79
2022/07/28 03:38:13;;;;;;;7.25;5.93;;;;;;;26.42;53.90;100833.97;5009088;28;20268;-78
2022/07/28 03:40:42;;;;;;;7.57;5.93;;;;;;;26.44;53.91;100853.63;5007433;28;20057;-78
2022/07/28 03:43:13;;;;;;;10.23;6.65;;;;;;;26.25;53.84;100824.88;5007700;28;20050;-78
2022/07/28 03:45:40;;;;;;;7.88;6.35;;;;;;;26.46;54.13;100869.72;5007589;28;20054;-78
2022/07/28 03:48:12;;;;;;;12.77;6.40;;;;;;;26.45;54.21;100868.88;5008005;28;20476;-79
2022/07/28 03:50:39;;;;;;;7.68;5.70;;;;;;;26.33;54.30;100859.88;5007688;28;20707;-79
2022/07/28 03:53:14;;;;;;;7.25;6.10;;;;;;;26.19;53.89;100837.50;5007809;28;20367;-79
2022/07/28 03:55:40;;;;;;;11.98;6.53;;;;;;;26.21;54.21;100840.81;5007248;28;20108;-78
2022/07/28 03:58:07;;;;;;;8.27;6.30;;;;;;;26.07;54.15;100828.47;5007244;28;20081;-78
2022/07/28 04:00:34;;;;;;;10.32;6.75;;;;;;;26.32;54.22;100867.22;5008647;28;20119;-79
2022/07/28 04:03:00;;;;;;;7.72;5.78;;;;;;;26.07;53.91;100842.94;5007524;28;20519;-77
2022/07/28 04:05:27;;;;;;;11.23;6.75;;;;;;;26.30;54.32;100876.69;5007335;28;20077;-78
2022/07/28 04:07:54;;;;;;;7.50;5.28;;;;;;;26.22;54.11;100870.53;5007083;28;20420;-77
2022/07/28 04:10:20;;;;;;;7.32;6.20;;;;;;;26.21;54.08;100868.88;5007287;28;20620;-78
2022/07/28 04:12:49;;;;;;;8.00;7.20;;;;;;;25.99;54.59;100848.69;5007133;28;20108;-77
2022/07/28 04:15:17;;;;;;;7.20;6.03;;;;;;;26.16;54.56;100879.59;5007415;28;20135;-77
2022/07/28 04:18:02;;;;;;;11.85;6.80;;;;;;;26.06;54.53;100862.19;5006880;28;20378;-77
2022/07/28 04:20:29;;;;;;;10.60;6.65;;;;;;;26.17;54.48;100892.16;5007085;28;20108;-78
2022/07/28 04:22:56;;;;;;;8.00;6.32;;;;;;;26.12;54.60;100881.16;5023238;28;20085;-78
2022/07/28 04:25:25;;;;;;;7.15;6.47;;;;;;;25.56;54.59;100790.75;5007956;28;20085;-77
2022/07/28 04:27:52;;;;;;;14.25;6.60;;;;;;;26.16;54.56;100893.22;5008969;28;20100;-77
2022/07/28 04:30:23;;;;;;;9.07;6.30;;;;;;;26.14;54.69;100883.63;5001122;28;20101;-77
2022/07/28 04:32:52;;;;;;;7.57;5.90;;;;;;;26.20;54.71;100888.97;5006771;28;20082;-78
2022/07/28 04:35:19;;;;;;;9.65;6.93;;;;;;;26.17;54.25;100872.28;5006719;28;20259;-79
2022/07/28 04:37:47;;;;;;;8.68;6.05;;;;;;;26.01;54.62;100847.41;5006898;28;20053;-78
2022/07/28 04:40:14;;;;;;;8.25;6.03;;;;;;;26.33;54.60;100882.47;5006454;28;20046;-78
2022/07/28 04:42:41;;;;;;;10.40;6.18;;;;;;;26.47;54.63;100896.72;5006251;28;20080;-79
2022/07/28 04:45:10;;;;;;;8.02;6.20;;;;;;;26.58;54.38;100895.94;4998203;28;20055;-79
2022/07/28 04:47:37;;;;;;;10.18;6.80;;;;;;;26.61;54.42;100898.19;4986017;28;20054;-78
2022/07/28 04:50:05;;;;;;;9.50;6.53;;;;;;;26.61;54.39;100895.47;4985498;28;20070;-78
2022/07/28 04:52:32;;;;;;;6.70;5.90;;;;;;;26.40;54.39;100868.78;4985872;28;20046;-77
2022/07/28 04:54:59;;;;;;;9.20;6.15;;;;;;;26.25;54.37;100846.63;5001015;28;20105;-78
2022/07/28 04:57:28;;;;;;;6.55;5.80;;;;;;;25.94;54.40;100803.16;4985518;28;20488;-77
2022/07/28 04:59:57;;;;;;;7.25;6.22;;;;;;;26.54;54.44;100897.47;4985600;28;20056;-78
2022/07/28 05:02:23;;;;;;;8.88;6.18;;;;;;;26.60;54.05;100899.25;4985814;28;20090;-78
2022/07/28 05:04:50;;;;;;;9.80;5.75;;;;;;;26.63;54.67;100903.41;4985855;28;20147;-78
2022/07/28 05:07:17;;;;;;;11.00;8.20;;;;;;;26.69;54.42;100913.34;4984987;28;20046;-78
2022/07/28 05:09:43;;;;;;;8.90;5.47;;;;;;;26.70;54.22;100914.16;4985616;28;20496;-78
2022/07/28 05:12:10;;;;;;;8.48;5.40;;;;;;;26.54;53.93;100900.19;4985535;28;20046;-80
2022/07/28 05:14:37;;;;;;;8.55;6.90;;;;;;;26.46;54.26;100876.00;4985606;28;20046;-78
2022/07/28 05:17:03;;;;;;;10.60;6.03;;;;;;;26.71;53.95;100921.28;4985355;28;20066;-79
2022/07/28 05:19:32;;;;;;;11.20;7.40;;;;;;;26.50;54.02;100893.50;4985258;28;20058;-77
2022/07/28 05:21:59;;;;;;;7.82;5.63;;;;;;;26.71;53.59;100927.53;4985069;28;20605;-78
2022/07/28 05:24:26;;;;;;;6.68;5.57;;;;;;;26.50;53.90;100896.22;4987084;28;20054;-79
2022/07/28 05:26:52;;;;;;;8.00;6.47;;;;;;;26.70;53.51;100930.50;4986734;28;20054;-77
2022/07/28 05:29:19;;;;;;;13.80;6.28;;;;;;;26.72;53.66;100928.38;4988152;28;20104;-78
2022/07/28 05:31:46;;;;;;;11.45;6.40;;;;;;;26.56;53.83;100903.50;5003322;28;20154;-79
2022/07/28 05:34:12;;;;;;;7.65;5.82;;;;;;;26.70;53.69;100922.31;4984561;28;20046;-78
2022/07/28 05:36:39;;;;;;;8.25;5.90;;;;;;;26.57;53.21;100888.81;4985348;28;20109;-78
2022/07/28 05:39:06;;;;;;;7.57;5.55;;;;;;;26.86;52.91;100927.91;4984789;28;20140;-79
2022/07/28 05:41:33;;;;;;;8.27;5.80;;;;;;;26.86;53.26;100927.06;4984963;28;20281;-77
2022/07/28 05:44:00;;;;;;;8.00;6.22;;;;;;;26.75;53.25;100892.47;4985826;28;20051;-78
2022/07/28 05:46:27;;;;;;;9.57;6.78;;;;;;;26.55;53.31;100855.53;4985271;28;20104;-78
2022/07/28 05:48:54;;;;;;;10.00;6.45;;;;;;;26.87;53.25;100906.97;4985277;28;20089;-78
2022/07/28 05:51:20;;;;;;;13.95;7.95;;;;;;;27.09;52.38;100928.97;4985309;28;20528;-77
2022/07/28 05:53:47;;;;;;;7.35;6.32;;;;;;;27.04;52.41;100907.91;4994848;28;20306;-79
2022/07/28 05:56:14;;;;;;;16.85;7.35;;;;;;;27.27;52.08;100941.66;5005433;28;20409;-78
2022/07/28 05:58:41;;;;;;;10.75;7.90;;;;;;;27.30;51.92;100933.00;5004487;28;20483;-78
2022/07/28 06:01:08;;;;;;;11.45;6.65;;;;;;;27.19;51.42;100901.16;5005522;28;20381;-78
2022/07/28 06:03:35;;;;;;;13.30;7.05;;;;;;;27.31;52.21;100922.91;5004280;28;20779;-78
2022/07/28 06:06:08;;;;;;;12.88;6.40;;;;;;;27.34;52.10;100931.47;5004490;28;20059;-78
2022/07/28 06:08:43;;;;;;;14.52;7.00;;;;;;;27.41;52.43;100926.69;5004147;28;20093;-78
2022/07/28 06:11:12;;;;;;;12.80;7.72;;;;;;;27.41;52.40;100926.69;5004246;28;20519;-78
2022/07/28 06:13:49;;;;;;;11.65;8.25;;;;;;;27.45;52.01;100938.78;5005987;28;20054;-77
2022/07/28 06:16:15;;;;;;;11.20;7.38;;;;;;;27.04;52.34;100866.19;5008855;28;20084;-78
2022/07/28 06:18:42;;;;;;;13.95;6.97;;;;;;;27.38;52.43;100924.47;5007951;28;20100;-78
2022/07/28 06:21:09;;;;;;;10.95;7.78;;;;;;;27.42;52.43;100920.16;5005685;28;20471;-78
2022/07/28 06:23:36;;;;;;;11.57;6.93;;;;;;;27.69;52.18;100927.81;5005228;28;20046;-79
2022/07/28 06:26:03;;;;;;;13.60;7.55;;;;;;;27.65;52.44;100902.09;5007142;28;20041;-78
2022/07/28 06:28:31;;;;;;;9.43;6.55;;;;;;;27.78;52.61;100920.91;5003727;28;20524;-79
2022/07/28 06:30:57;;;;;;;13.50;7.15;;;;;;;27.61;52.41;100877.22;5001667;28;20425;-79
2022/07/28 06:33:24;;;;;;;8.23;7.43;;;;;;;27.97;52.48;100929.75;5003932;28;20447;-79
2022/07/28 06:35:51;;;;;;;7.93;7.13;;;;;;;27.85;52.90;100910.69;5003537;28;20461;-79
2022/07/28 06:38:19;;;;;;;8.63;7.78;;;;;;;28.16;51.99;100938.56;5005171;28;20133;-78
2022/07/28 06:40:47;;;;;;;9.18;7.00;;;;;;;28.15;52.42;100936.06;4986202;28;20054;-79
2022/07/28 06:43:13;;;;;;;12.40;7.60;;;;;;;28.23;52.98;100938.38;4985518;28;20050;-79
2022/07/28 06:45:40;;;;;;;8.95;7.75;;;;;;;28.25;52.80;100942.53;4985214;28;20086;-78
2022/07/28 06:48:07;;;;;;;11.15;7.32;;;;;;;28.10;54.00;100937.63;4985981;28;20046;-80
2022/07/28 06:50:37;;;;;;;9.63;8.05;;;;;;;28.05;54.20;100944.91;4986233;28;20074;-80
2022/07/28 06:53:04;;;;;;;11.98;6.05;;;;;;;27.81;54.16;100916.84;4990772;28;20052;-79
2022/07/28 06:55:31;;;;;;;10.75;7.30;;;;;;;27.92;54.20;100935.13;5006504;28;20049;-78
2022/07/28 06:58:02;;;;;;;8.98;6.95;;;;;;;27.95;54.06;100928.34;5008831;28;20064;-80
2022/07/28 07:00:29;;;;;;;16.70;8.15;;;;;;;27.99;53.81;100924.88;5008334;28;20451;-79
2022/07/28 07:02:55;;;;;;;10.40;7.03;;;;;;;28.02;53.72;100932.56;4969211;28;20085;-79
2022/07/28 07:05:22;;;;;;;20.45;8.35;;;;;;;28.14;53.63;100937.97;4970718;28;20058;-79
2022/07/28 07:07:50;;;;;;;12.23;6.88;;;;;;;28.13;53.72;100939.03;4974142;28;20081;-77
2022/07/28 07:10:20;;;;;;;15.57;7.68;;;;;;;28.37;53.33;100942.47;4972634;28;20046;-78
2022/07/28 07:12:46;;;;;;;10.48;8.00;;;;;;;28.50;53.51;100934.00;4969297;28;20085;-80
2022/07/28 07:15:13;;;;;;;7.75;7.05;;;;;;;28.56;54.03;100948.56;4970544;28;20046;-78
2022/07/28 07:17:40;;;;;;;10.73;7.45;;;;;;;28.54;54.43;100943.34;4969208;28;20137;-80
2022/07/28 07:20:09;;;;;;;13.20;8.02;;;;;;;28.57;54.50;100939.31;4968687;28;20061;-79
2022/07/28 07:22:41;;;;;;;15.80;9.00;;;;;;;28.67;53.57;100934.00;4994840;28;20050;-78
2022/07/28 07:25:16;;;;;;;10.20;8.40;;;;;;;28.71;52.88;100915.19;5001688;28;20105;-80
2022/07/28 07:27:44;;;;;;;15.48;8.25;;;;;;;28.88;53.41;100956.97;5003028;28;20074;-81
2022/07/28 07:30:12;;;;;;;13.38;7.45;;;;;;;28.63;53.18;100915.63;5021993;28;20096;-81
2022/07/28 07:32:39;;;;;;;10.25;7.55;;;;;;;28.80;52.95;100954.69;5013323;28;20112;-78
2022/07/28 07:35:06;;;;;;;10.18;7.47;;;;;;;28.64;53.87;100936.38;4990814;28;20082;-79
2022/07/28 07:37:33;;;;;;;12.73;9.45;;;;;;;28.75;53.27;100894.50;4989420;28;20046;-79
2022/07/28 07:40:01;;;;;;;10.60;7.90;;;;;;;29.08;53.85;100950.19;4988616;28;20397;-80
2022/07/28 07:42:27;;;;;;;13.45;7.70;;;;;;;29.14;53.33;100917.22;4989023;28;20493;-79
2022/07/28 07:44:54;;;;;;;13.60;9.30;;;;;;;29.36;52.64;100932.84;4988874;28;20326;-79
2022/07/28 07:47:21;;;;;;;11.10;8.27;;;;;;;29.41;52.83;100932.91;4988181;28;20444;-79
2022/07/28 07:49:48;;;;;;;12.05;8.25;;;;;;;29.08;52.82;100880.00;4988575;28;20108;-79
2022/07/28 07:52:14;;;;;;;10.05;7.40;;;;;;;29.39;53.16;100929.56;4988174;28;20054;-80
2022/07/28 07:54:41;;;;;;;10.25;7.10;;;;;;;29.46;52.75;100941.16;5005316;28;20073;-79
2022/07/28 07:57:09;;;;;;;9.90;7.05;;;;;;;29.99;51.35;100950.56;5007678;28;20065;-80
2022/07/28 07:59:35;;;;;;;8.85;7.00;;;;;;;29.90;51.25;100932.94;5007964;28;20085;-79
2022/07/28 08:02:02;;;;;;;8.55;7.50;;;;;;;29.68;51.50;100934.91;4992674;28;20061;-79
2022/07/28 08:04:29;;;;;;;11.40;7.80;;;;;;;29.10;52.33;100858.66;4987923;28;20058;-79
2022/07/28 08:06:56;;;;;;;7.95;7.05;;;;;;;29.72;51.57;100930.56;4987922;28;20060;-78
2022/07/28 08:09:23;;;;;;;8.75;7.45;;;;;;;29.39;51.88;100870.25;4987854;28;20054;-78
2022/07/28 08:11:49;;;;;;;11.23;7.22;;;;;;;29.92;50.75;100911.63;4989978;28;20054;-78
2022/07/28 08:14:16;;;;;;;8.75;6.88;;;;;;;30.01;50.45;100921.03;4987689;28;20050;-77
2022/07/28 08:16:44;;;;;;;12.38;8.23;;;;;;;30.02;50.07;100930.06;4988170;28;20570;-78
2022/07/28 08:19:10;;;;;;;7.60;6.85;;;;;;;30.12;50.17;100932.06;4987645;28;20054;-79
2022/07/28 08:21:37;;;;;;;9.07;7.28;;;;;;;30.19;50.03;100933.50;4988743;28;20492;-78
2022/07/28 08:24:04;;;;;;;12.38;8.57;;;;;;;30.14;49.66;100949.06;4986952;28;20054;-80
2022/07/28 08:26:31;;;;;;;10.13;7.60;;;;;;;29.90;49.83;100915.72;4991486;28;20122;-78
2022/07/28 08:28:57;;;;;;;10.93;8.93;;;;;;;29.98;50.18;100954.41;4987677;28;20053;-78
2022/07/28 08:31:24;;;;;;;9.23;8.30;;;;;;;29.88;50.06;100943.34;5009368;28;20556;-78
2022/07/28 08:33:51;;;;;;;10.38;8.23;;;;;;;29.97;49.93;100932.75;5007149;28;20152;-78
2022/07/28 08:36:20;;;;;;;8.10;7.32;;;;;;;30.19;49.72;100933.50;5006881;28;20064;-78
2022/07/28 08:38:46;;;;;;;8.07;6.97;;;;;;;30.37;49.17;100932.34;5006765;28;20708;-77
2022/07/28 08:41:44;;;;;;;8.52;7.63;;;;;;;29.94;49.04;100890.31;5007843;28;20200;-77
2022/07/28 08:44:14;;;;;;;8.30;6.95;;;;;;;30.30;49.33;100964.59;5004931;28;20125;-77
2022/07/28 08:46:42;;;;;;;7.88;7.18;;;;;;;30.40;49.07;100936.47;5006810;28;20137;-79
2022/07/28 08:49:11;;;;;;;15.73;7.70;;;;;;;30.44;48.50;100949.41;5006714;28;20062;-79
2022/07/28 08:51:41;;;;;;;9.95;7.55;;;;;;;30.30;49.28;100955.56;5006207;28;20724;-78
2022/07/28 08:54:11;;;;;;;11.73;8.73;;;;;;;30.37;48.62;100972.63;5006523;28;20046;-77
2022/07/28 08:56:42;;;;;;;8.57;7.55;;;;;;;30.64;48.26;100956.13;5006497;28;20076;-77
2022/07/28 08:59:14;;;;;;;10.50;7.03;;;;;;;30.67;48.52;100966.56;5006384;28;20065;-78
2022/07/28 09:01:41;;;;;;;9.32;7.78;;;;;;;30.75;47.92;100974.28;5006224;28;20089;-77
2022/07/28 09:04:08;;;;;;;10.23;7.32;;;;;;;30.85;48.01;100952.50;5006707;28;20056;-78
2022/07/28 09:06:40;;;;;;;10.57;7.75;;;;;;;31.07;47.76;100971.56;5008370;28;20074;-77
2022/07/28 09:09:08;;;;;;;9.18;7.70;;;;;;;30.61;46.94;100951.16;5007387;28;20046;-76
2022/07/28 09:11:38;;;;;;;10.13;7.28;;;;;;;30.57;47.97;100964.56;5006100;28;20050;-78
2022/07/28 09:14:05;;;;;;;8.10;7.22;;;;;;;30.67;47.67;100950.94;5006047;28;20077;-78
2022/07/28 09:16:32;;;;;;;9.52;7.53;;;;;;;30.82;47.10;100958.44;5006210;28;20046;-77
2022/07/28 09:18:59;;;;;;;8.23;7.00;;;;;;;30.78;47.61;100957.34;5005272;28;20123;-77
2022/07/28 09:21:26;;;;;;;11.68;7.00;;;;;;;31.00;47.97;100954.50;5006347;28;20101;-77
2022/07/28 09:23:53;;;;;;;8.18;7.30;;;;;;;30.99;47.27;100971.22;5005935;28;20042;-77
2022/07/28 09:26:19;;;;;;;7.97;7.18;;;;;;;30.98;45.88;100944.91;5005589;28;20049;-77
2022/07/28 09:28:52;;;;;;;8.35;6.70;;;;;;;31.02;46.54;100951.50;4998165;28;20046;-75
2022/07/28 09:31:21;;;;;;;9.02;7.05;;;;;;;31.47;46.52;100967.41;5006114;28;20208;-79
2022/07/28 09:34:01;;;;;;;8.77;7.38;;;;;;;31.32;46.82;100961.81;5005615;28;20107;-76
2022/07/28 09:36:29;;;;;;;10.93;7.88;;;;;;;31.01;46.77;100938.88;5003794;28;20404;-77
2022/07/28 09:38:57;;;;;;;10.10;7.78;;;;;;;31.15;46.71;100940.06;5005895;28;20110;-76
2022/07/28 09:41:24;;;;;;;11.70;7.13;;;;;;;31.38;46.44;100948.94;5006391;28;20516;-77
2022/07/28 09:43:51;;;;;;;8.18;6.30;;;;;;;31.33;46.69;100959.91;5006013;28;20177;-76
2022/07/28 09:46:23;;;;;;;8.50;7.05;;;;;;;31.37;45.59;100930.84;5005708;28;20100;-77
2022/07/28 09:48:58;;;;;;;8.82;6.50;;;;;;;31.23;46.42;100947.78;5005673;28;20093;-78
2022/07/28 09:51:28;;;;;;;8.35;7.47;;;;;;;31.29;46.09;100954.97;5007039;28;20140;-77
2022/07/28 09:54:13;;;;;;;12.10;7.18;;;;;;;31.39;45.80;100945.97;4994773;28;20456;-77
2022/07/28 09:56:43;;;;;;;9.20;7.70;;;;;;;31.54;45.18;100938.91;4985971;28;20137;-78
2022/07/28 09:59:11;;;;;;;7.82;6.97;;;;;;;31.24;46.25;100948.59;4985550;28;20047;-77
2022/07/28 10:01:52;;;;;;;7.80;7.00;;;;;;;31.07;45.61;100893.94;4984513;28;20062;-78
2022/07/28 10:04:31;;;;;;;7.68;7.00;;;;;;;31.42;45.11;100950.09;4982906;28;20058;-77
2022/07/28 10:07:06;;;;;;;10.43;7.47;;;;;;;31.31;45.89;100949.19;4985059;28;20133;-77
2022/07/28 10:09:33;;;;;;;8.15;7.32;;;;;;;31.37;46.26;100953.63;4985517;28;20359;-77
2022/07/28 10:12:20;;;;;;;7.65;6.85;;;;;;;30.80;46.24;100896.78;4985846;28;20046;-77
2022/07/28 10:14:50;;;;;;;8.77;7.20;;;;;;;31.09;46.57;100941.97;4987208;28;20054;-78
2022/07/28 10:17:32;;;;;;;8.63;7.68;;;;;;;31.00;46.30;100937.25;4985347;28;20081;-78
2022/07/28 10:20:00;;;;;;;11.27;7.32;;;;;;;31.15;46.45;100928.28;4985384;28;20112;-78
2022/07/28 10:22:33;;;;;;;7.68;6.97;;;;;;;31.00;45.69;100910.66;4985792;28;20073;-77
2022/07/28 10:25:13;;;;;;;6.22;5.72;;;;;;;31.20;46.91;100920.06;4987693;28;20042;-78
2022/07/28 10:27:41;;;;;;;8.70;6.82;;;;;;;31.78;45.13;100942.03;4993437;28;20050;-78
2022/07/28 10:30:09;;;;;;;8.50;7.43;;;;;;;31.43;44.67;100896.88;4998556;28;20042;-78
2022/07/28 10:32:44;;;;;;;8.95;7.13;;;;;;;31.63;45.28;100934.53;4988958;28;20493;-77
2022/07/28 10:35:16;;;;;;;7.63;6.78;;;;;;;31.79;44.40;100916.22;4988778;28;20046;-77
2022/07/28 10:38:20;;;;;;;10.95;7.93;;;;;;;31.87;43.60;100926.66;4988779;28;20081;-77
2022/07/28 10:40:49;;;;;;;8.25;7.32;;;;;;;32.24;43.40;100918.25;4951641;28;20059;-77
2022/07/28 10:43:16;;;;;;;7.63;6.90;;;;;;;31.93;43.66;100862.44;4982390;28;20523;-77
2022/07/28 10:45:43;;;;;;;7.88;6.80;;;;;;;32.07;44.09;100892.97;4988571;28;20151;-76
2022/07/28 10:48:29;;;;;;;8.60;7.10;;;;;;;32.04;43.93;100927.28;4988745;28;20511;-77
2022/07/28 10:50:58;;;;;;;7.18;6.32;;;;;;;32.06;45.01;100916.84;4988718;28;20058;-77
2022/07/28 10:53:47;;;;;;;9.27;7.15;;;;;;;31.79;42.77;100897.00;4995334;28;20042;-76
2022/07/28 10:56:40;;;;;;;7.78;6.97;;;;;;;31.82;44.60;100893.69;5008598;28;20092;-77
2022/07/28 10:59:28;;;;;;;9.18;8.23;;;;;;;31.89;42.64;100911.56;5008223;28;20567;-78
2022/07/28 11:01:55;;;;;;;8.10;6.95;;;;;;;31.99;43.45;100888.81;5008163;28;20535;-78
2022/07/28 11:04:40;;;;;;;16.48;7.70;;;;;;;32.21;43.64;100924.28;5008080;28;20077;-78
2022/07/28 11:07:15;;;;;;;7.65;6.85;;;;;;;32.27;42.98;100906.69;5008083;28;20275;-78
2022/07/28 11:09:43;;;;;;;7.25;6.63;;;;;;;32.64;42.85;100910.28;5008901;28;20546;-77
2022/07/28 11:12:14;;;;;;;8.82;7.30;;;;;;;32.38;42.85;100907.50;5008000;28;20078;-77
2022/07/28 11:14:42;;;;;;;10.35;7.38;;;;;;;32.59;43.11;100893.81;5007831;28;20073;-78
2022/07/28 11:17:12;;;;;;;10.95;6.88;;;;;;;32.84;42.65;100920.41;5009154;28;20050;-77
2022/07/28 11:19:44;;;;;;;8.20;7.40;;;;;;;32.63;43.18;100908.66;5009314;28;20057;-77
2022/07/28 11:22:32;;;;;;;7.55;6.85;;;;;;;32.36;42.11;100876.78;5008305;28;20046;-77
2022/07/28 11:25:03;;;;;;;9.82;7.50;;;;;;;32.55;42.74;100904.50;5007797;28;20128;-77
2022/07/28 11:27:52;;;;;;;9.02;7.45;;;;;;;32.53;43.16;100906.75;5007799;28;20045;-78
2022/07/28 11:30:31;;;;;;;7.70;7.00;;;;;;;32.59;43.48;100911.09;5001932;28;20046;-77
2022/07/28 11:33:06;;;;;;;8.02;7.32;;;;;;;32.29;40.49;100903.69;5007599;28;20373;-76
2022/07/28 11:35:39;;;;;;;8.98;6.95;;;;;;;32.16;43.38;100905.03;5007581;28;20077;-77